createdAt,value
2022-09-06T00:12:46.504Z,74.14
2022-09-06T00:41:30.337Z,73.52
2022-09-06T01:10:17.430Z,73.09
2022-09-06T01:38:52.217Z,75.54
2022-09-06T02:07:37.678Z,75.13
2022-09-06T02:36:25.510Z,73.88
2022-09-06T03:05:01.471Z,73.17
2022-09-06T03:33:48.935Z,74.68
2022-09-06T04:02:35.061Z,75.25
2022-09-06T04:31:09.769Z,75.16
2022-09-06T04:59:59.574Z,77.8
2022-09-06T05:28:35.992Z,78.39
2022-09-06T05:57:07.640Z,75.87
2022-09-06T06:25:40.761Z,75.61
2022-09-06T06:54:23.984Z,63.02
2022-09-06T07:22:51.962Z,70.83
2022-09-06T07:51:23.266Z,72.05
2022-09-06T08:19:38.336Z,70.73
2022-09-06T08:48:02.823Z,67.49
2022-09-06T09:16:31.137Z,67.15
2022-09-06T09:44:59.437Z,66.58
2022-09-06T10:13:46.757Z,58.9
2022-09-06T10:42:07.234Z,56.19
2022-09-06T11:10:31.530Z,51.81
2022-09-06T11:38:56.709Z,48.78
2022-09-06T12:07:47.439Z,47.98
2022-09-06T12:36:09.734Z,46.82
2022-09-06T13:04:50.663Z,48.88
2022-09-06T13:33:07.047Z,53.13
2022-09-06T14:01:31.598Z,49.43
2022-09-06T14:30:02.550Z,48.14
2022-09-06T14:58:19.575Z,48
2022-09-06T15:26:44.835Z,48.83
2022-09-06T15:55:15.999Z,48.46
2022-09-06T16:23:35.312Z,45.38
2022-09-06T16:52:07.849Z,45.5
2022-09-06T17:20:42.570Z,47.79
2022-09-06T17:49:10.793Z,51.4
2022-09-06T18:17:27.646Z,53.59
2022-09-06T18:45:52.495Z,54.56
2022-09-06T19:14:20.489Z,55.98
2022-09-06T19:42:54.444Z,57.29
2022-09-06T20:11:28.145Z,59.27
2022-09-06T20:39:59.079Z,62.06
2022-09-06T21:08:43.600Z,62.23
2022-09-06T21:36:56.587Z,64.2
2022-09-06T22:05:36.778Z,66.54
2022-09-06T22:34:20.714Z,67.21
2022-09-06T23:03:04.927Z,66.15
2022-09-06T23:31:45.316Z,67.74
